createdAt,value
2022-12-08T00:01:43.605Z,100779.06
2022-12-08T00:05:03.806Z,100779.06
2022-12-08T00:08:24.487Z,100777.38
2022-12-08T00:11:27.543Z,100785.25
2022-12-08T00:14:33.103Z,100786.06
2022-12-08T00:17:37.451Z,100786.13
2022-12-08T00:20:40.366Z,100776.38
2022-12-08T00:23:43.321Z,100777.19
2022-12-08T00:26:46.417Z,100782.53
2022-12-08T00:29:49.420Z,100782.53
2022-12-08T00:32:53.758Z,100774.53
2022-12-08T00:35:56.735Z,100775.41
2022-12-08T00:39:00.409Z,100777.19
2022-12-08T00:42:15.870Z,100767.50
2022-12-08T00:45:18.838Z,100763.97
2022-12-08T00:48:23.175Z,100767.50
2022-12-08T00:51:26.143Z,100768.44
2022-12-08T00:54:29.206Z,100768.44
2022-12-08T00:57:32.498Z,100755.22
2022-12-08T01:00:35.430Z,100760.53
2022-12-08T01:03:39.903Z,100752.47
2022-12-08T01:06:43.501Z,100752.47
2022-12-08T01:09:46.466Z,100749.88
2022-12-08T01:12:49.474Z,100749.88
2022-12-08T01:15:52.406Z,100759.66
2022-12-08T01:18:58.366Z,100749.03
2022-12-08T01:22:01.363Z,100753.47
2022-12-08T01:25:04.514Z,100752.63
2022-12-08T01:28:07.476Z,100750.03
2022-12-08T01:31:13.290Z,100740.34
2022-12-08T01:34:17.946Z,100732.34
2022-12-08T01:37:20.891Z,100741.25
2022-12-08T01:40:24.006Z,100737.66
2022-12-08T01:43:27.074Z,100736.81
2022-12-08T01:46:31.628Z,100739.38
2022-12-08T01:49:37.582Z,100732.34
2022-12-08T01:52:43.946Z,100734.06
2022-12-08T01:55:51.942Z,100732.34
2022-12-08T01:58:56.634Z,100732.34
2022-12-08T02:01:59.879Z,100727.03
2022-12-08T02:05:04.965Z,100723.50
2022-12-08T02:08:10.064Z,100721.72
2022-12-08T02:11:14.470Z,100717.31
2022-12-08T02:14:17.551Z,100717.31
2022-12-08T02:17:38.514Z,100711.06
2022-12-08T02:20:54.199Z,100716.38
2022-12-08T02:24:04.773Z,100711.06
2022-12-08T02:27:33.627Z,100707.44
2022-12-08T02:30:44.513Z,100713.72
2022-12-08T02:34:19.998Z,100712.78
2022-12-08T02:37:31.814Z,100705.75
2022-12-08T02:40:41.829Z,100704.88
2022-12-08T02:43:49.327Z,100706.66
2022-12-08T02:46:55.518Z,100703.16
2022-12-08T02:50:00.466Z,100697.84
2022-12-08T02:56:21.639Z,100695.09
2022-12-08T02:59:37.193Z,100693.31
2022-12-08T03:03:06.902Z,100695.09
2022-12-08T03:06:25.213Z,100687.13
2022-12-08T03:09:37.288Z,100683.50
2022-12-08T03:12:45.225Z,100671.16
2022-12-08T03:15:51.422Z,100668.50
2022-12-08T03:19:00.970Z,100672.09
2022-12-08T03:22:08.070Z,100670.38
2022-12-08T03:25:14.434Z,100666.84
2022-12-08T03:28:17.776Z,100654.50
2022-12-08T03:31:22.906Z,100646.53
2022-12-08T03:34:29.676Z,100643.00
2022-12-08T03:37:36.851Z,100632.34
2022-12-08T03:40:40.675Z,100638.47
2022-12-08T03:43:43.760Z,100628.75
2022-12-08T03:46:46.901Z,100623.38
2022-12-08T03:49:49.838Z,100627.81
2022-12-08T03:52:54.179Z,100621.50
2022-12-08T03:55:57.146Z,100613.41
2022-12-08T03:59:00.916Z,100605.34
2022-12-08T04:02:04.042Z,100598.16
2022-12-08T04:05:07.529Z,100605.13
2022-12-08T04:08:11.918Z,100595.28
2022-12-08T04:11:15.505Z,100587.22
2022-12-08T04:14:18.524Z,100587.16
2022-12-08T04:17:21.521Z,100577.28
2022-12-08T04:20:24.483Z,100578.06
2022-12-08T04:23:28.897Z,100570.09
2022-12-08T04:26:31.997Z,100565.63
2022-12-08T04:29:34.999Z,100559.44
2022-12-08T04:32:40.582Z,100559.44
2022-12-08T04:35:45.898Z,100553.34
2022-12-08T04:38:50.263Z,100556.00
2022-12-08T04:41:53.199Z,100543.63
2022-12-08T04:44:56.225Z,100544.59
2022-12-08T04:47:59.613Z,100549.13
2022-12-08T04:51:02.601Z,100542.06
2022-12-08T04:54:07.102Z,100549.16
2022-12-08T04:57:10.110Z,100550.13
2022-12-08T05:00:14.313Z,100538.63
2022-12-08T05:03:17.717Z,100535.19
2022-12-08T05:06:20.676Z,100532.59
2022-12-08T05:09:25.127Z,100530.88
2022-12-08T05:12:28.706Z,100534.47
2022-12-08T05:15:31.717Z,100532.75
2022-12-08T05:18:34.941Z,100532.84
2022-12-08T05:21:37.870Z,100523.13
2022-12-08T05:24:47.221Z,100516.09
2022-12-08T05:27:51.222Z,100521.41
2022-12-08T05:30:54.334Z,100521.41
2022-12-08T05:34:02.755Z,100513.44
2022-12-08T05:37:06.196Z,100516.97
2022-12-08T05:40:11.425Z,100509.03
2022-12-08T05:43:14.359Z,100522.34
2022-12-08T05:46:18.385Z,100513.53
2022-12-08T05:49:21.475Z,100511.69
2022-12-08T05:52:24.406Z,100513.44
2022-12-08T05:55:28.822Z,100502.69
2022-12-08T05:58:31.769Z,100507.94
2022-12-08T06:01:34.840Z,100501.69
2022-12-08T06:04:38.226Z,100499.91
2022-12-08T06:07:41.285Z,100502.47
2022-12-08T06:10:46.688Z,100504.13
2022-12-08T06:13:49.796Z,100506.69
2022-12-08T06:16:52.884Z,100504.03
2022-12-08T06:19:55.952Z,100508.44
2022-12-08T06:22:59.257Z,100515.44
2022-12-08T06:26:04.218Z,100507.47
2022-12-08T06:29:07.249Z,100505.69
2022-12-08T06:32:10.240Z,100509.25
2022-12-08T06:35:13.365Z,100506.59
2022-12-08T06:38:16.367Z,100503.09
2022-12-08T06:41:20.858Z,100500.44
2022-12-08T06:44:24.110Z,100504.03
2022-12-08T06:47:27.144Z,100512.00
2022-12-08T06:50:30.100Z,100515.63
2022-12-08T06:53:33.118Z,100507.66
2022-12-08T06:56:37.440Z,100504.13
2022-12-08T06:59:41.082Z,100507.72
2022-12-08T07:02:44.130Z,100504.22
2022-12-08T07:05:47.299Z,100506.91
2022-12-08T07:08:50.220Z,100503.41
2022-12-08T07:11:54.497Z,100507.00
2022-12-08T07:14:57.462Z,100505.28
2022-12-08T07:18:00.781Z,100508.88
2022-12-08T07:21:05.941Z,100499.19
2022-12-08T07:24:09.267Z,100513.34
2022-12-08T07:27:13.809Z,100509.81
2022-12-08T07:30:16.861Z,100506.22
2022-12-08T07:33:19.812Z,100514.22
2022-12-08T07:36:23.740Z,100507.16
2022-12-08T07:39:26.866Z,100510.69
2022-12-08T07:42:31.282Z,100507.16
2022-12-08T07:45:34.298Z,100503.56
2022-12-08T07:48:37.357Z,100500.91
2022-12-08T07:51:40.402Z,100501.78
2022-12-08T07:54:43.409Z,100505.28
2022-12-08T07:57:47.822Z,100500.72
2022-12-08T08:00:51.252Z,100499.94
2022-12-08T08:03:55.234Z,100509.75
2022-12-08T08:06:58.322Z,100502.00
2022-12-08T08:10:01.777Z,100504.03
2022-12-08T08:13:06.330Z,100503.56
2022-12-08T08:16:11.198Z,100510.75
2022-12-08T08:19:14.277Z,100506.22
2022-12-08T08:22:17.336Z,100506.78
2022-12-08T08:25:22.656Z,100509.03
2022-12-08T08:28:27.030Z,100508.72
2022-12-08T08:31:30.085Z,100515.44
2022-12-08T08:34:33.138Z,100509.13
2022-12-08T08:37:36.196Z,100508.78
2022-12-08T08:40:39.344Z,100510.22
2022-12-08T08:43:43.862Z,100514.34
2022-12-08T08:46:46.899Z,100511.28
2022-12-08T08:49:50.091Z,100513.56
2022-12-08T08:52:53.231Z,100515.91
2022-12-08T08:55:56.399Z,100509.41
2022-12-08T08:59:00.815Z,100513.53
2022-12-08T09:02:03.934Z,100510.72
2022-12-08T09:05:08.002Z,100512.28
2022-12-08T09:08:11.226Z,100502.47
2022-12-08T09:11:14.542Z,100505.06
2022-12-08T09:14:18.947Z,100500.56
2022-12-08T09:17:22.003Z,100499.75
2022-12-08T09:20:25.131Z,100494.41
2022-12-08T09:23:33.707Z,100496.31
2022-12-08T09:26:38.310Z,100496.44
2022-12-08T09:29:42.847Z,100491.28
2022-12-08T09:32:45.814Z,100486.13
2022-12-08T09:35:48.843Z,100491.63
2022-12-08T09:38:53.720Z,100482.84
2022-12-08T09:42:00.959Z,100475.03
2022-12-08T09:45:12.957Z,100475.19
2022-12-08T09:48:19.204Z,100474.41
2022-12-08T09:51:24.712Z,100481.63
2022-12-08T09:54:33.650Z,100460.41
2022-12-08T09:57:37.551Z,100456.09
2022-12-08T10:00:41.864Z,100465.88
2022-12-08T10:03:44.968Z,100447.31
2022-12-08T10:06:52.844Z,100451.88
2022-12-08T10:10:04.594Z,100456.31
2022-12-08T10:13:17.833Z,100457.34
2022-12-08T10:16:32.359Z,100460.97
2022-12-08T10:19:36.277Z,100455.66
2022-12-08T10:22:44.538Z,100449.53
2022-12-08T10:25:50.750Z,100457.53
2022-12-08T10:28:53.875Z,100455.78
2022-12-08T10:32:00.758Z,100453.22
2022-12-08T10:35:07.122Z,100452.34
2022-12-08T10:38:18.527Z,100449.69
2022-12-08T10:41:21.741Z,100448.00
2022-12-08T10:44:24.822Z,100447.13
2022-12-08T10:47:31.231Z,100442.66
2022-12-08T10:50:36.859Z,100446.25
2022-12-08T10:53:47.494Z,100443.59
2022-12-08T10:56:55.718Z,100443.59
2022-12-08T10:59:58.741Z,100444.56
2022-12-08T11:03:05.233Z,100448.13
2022-12-08T11:06:16.349Z,100447.28
2022-12-08T11:09:40.839Z,100447.34
2022-12-08T11:12:45.375Z,100436.81
2022-12-08T11:15:48.781Z,100441.16
2022-12-08T11:18:58.895Z,100437.66
2022-12-08T11:22:01.969Z,100432.31
2022-12-08T11:25:19.085Z,100437.66
2022-12-08T11:28:25.280Z,100427.00
2022-12-08T11:31:33.041Z,100434.16
2022-12-08T11:34:43.851Z,100434.16
2022-12-08T11:37:46.856Z,100431.47
2022-12-08T11:40:53.292Z,100430.63
2022-12-08T11:44:04.676Z,100426.22
2022-12-08T11:47:13.686Z,100426.31
2022-12-08T11:50:23.999Z,100433.28
2022-12-08T11:53:31.496Z,100431.41
2022-12-08T11:56:38.458Z,100436.56
2022-12-08T11:59:46.190Z,100442.66
2022-12-08T12:02:56.781Z,100439.81
2022-12-08T12:06:46.349Z,100444.13
2022-12-08T12:09:57.858Z,100443.25
2022-12-08T12:13:10.936Z,100434.34
2022-12-08T12:16:43.211Z,100439.66
2022-12-08T12:19:48.815Z,100437.94
2022-12-08T12:23:01.672Z,100438.81
2022-12-08T12:26:08.299Z,100430.91
2022-12-08T12:29:18.731Z,100430.03
2022-12-08T12:32:22.290Z,100438.03
2022-12-08T12:35:34.350Z,100432.78
2022-12-08T12:38:59.075Z,100432.78
2022-12-08T12:42:03.972Z,100431.94
2022-12-08T12:45:26.264Z,100432.03
2022-12-08T12:48:29.299Z,100427.63
2022-12-08T12:51:46.827Z,100434.84
2022-12-08T12:55:28.150Z,100424.19
2022-12-08T12:58:38.995Z,100424.19
2022-12-08T13:01:55.316Z,100426.84
2022-12-08T13:05:03.022Z,100418.88
2022-12-08T13:08:17.471Z,100418.88
2022-12-08T13:11:23.484Z,100426.84
2022-12-08T13:14:32.003Z,100421.53
2022-12-08T13:17:38.304Z,100416.19
2022-12-08T13:20:43.771Z,100418.88
2022-12-08T13:23:49.434Z,100413.53
2022-12-08T13:27:32.175Z,100418.97
2022-12-08T13:30:46.854Z,100416.28
2022-12-08T13:33:49.984Z,100424.19
2022-12-08T13:37:04.279Z,100427.78
2022-12-08T13:40:16.366Z,100432.31
2022-12-08T13:43:29.765Z,100434.97
2022-12-08T13:54:45.741Z,100432.31
2022-12-08T13:57:11.596Z,100429.66
2022-12-08T14:00:17.795Z,100444.78
2022-12-08T14:03:22.484Z,100433.28
2022-12-08T14:06:31.335Z,100436.88
2022-12-08T14:09:37.956Z,100438.69
2022-12-08T14:12:44.734Z,100436.88
2022-12-08T14:15:47.866Z,100436.88
2022-12-08T14:18:52.480Z,100440.47
2022-12-08T14:21:58.937Z,100445.81
2022-12-08T14:25:02.301Z,100441.41
2022-12-08T14:28:06.382Z,100446.66
2022-12-08T14:31:14.012Z,100445.81
2022-12-08T14:34:18.774Z,100439.63
2022-12-08T14:37:22.786Z,100445.81
2022-12-08T14:40:29.196Z,100453.78
2022-12-08T14:43:32.862Z,100453.78
2022-12-08T14:46:35.832Z,100449.38
2022-12-08T14:49:41.526Z,100461.78
2022-12-08T14:52:45.606Z,100453.88
2022-12-08T14:55:50.003Z,100462.78
2022-12-08T14:59:06.066Z,100451.28
2022-12-08T15:02:24.583Z,100463.66
2022-12-08T15:05:31.791Z,100468.97
2022-12-08T15:08:51.234Z,100463.66
2022-12-08T15:12:02.726Z,100471.63
2022-12-08T15:15:17.414Z,100474.28
2022-12-08T15:18:22.702Z,100475.16
2022-12-08T15:21:31.120Z,100474.28
2022-12-08T15:24:35.647Z,100469.91
2022-12-08T15:27:49.586Z,100478.75
2022-12-08T15:30:53.867Z,100488.53
2022-12-08T15:33:56.851Z,100483.19
2022-12-08T15:37:01.234Z,100485.88
2022-12-08T15:40:04.887Z,100497.47
2022-12-08T15:43:10.958Z,100497.47
2022-12-08T15:46:13.991Z,100491.28
2022-12-08T15:49:19.584Z,100493.00
2022-12-08T15:52:25.870Z,100487.59
2022-12-08T15:55:30.347Z,100492.91
2022-12-08T16:01:57.367Z,100485.81
2022-12-08T16:05:40.103Z,100485.81
2022-12-08T16:08:45.848Z,100484.06
2022-12-08T16:12:08.466Z,100493.00
2022-12-08T16:18:40.093Z,100501.91
2022-12-08T16:25:23.500Z,100507.38
2022-12-08T16:28:53.596Z,100504.72
2022-12-08T16:31:50.417Z,100506.53
2022-12-08T16:34:54.022Z,100514.53
2022-12-08T16:37:57.031Z,100517.19
2022-12-08T16:41:18.992Z,100527.84
2022-12-08T16:44:22.058Z,100527.84
2022-12-08T16:47:25.153Z,100526.09
2022-12-08T16:50:29.973Z,100531.41
2022-12-08T16:53:32.913Z,100522.66
2022-12-08T16:56:38.196Z,100526.09
2022-12-08T16:59:41.343Z,100526.97
2022-12-08T17:02:45.239Z,100522.50
2022-12-08T17:05:48.290Z,100518.03
2022-12-08T17:08:51.443Z,100517.09
2022-12-08T17:12:01.911Z,100519.75
2022-12-08T17:15:09.374Z,100517.09
2022-12-08T17:18:12.722Z,100522.50
2022-12-08T17:21:19.071Z,100526.88
2022-12-08T17:24:23.171Z,100527.84
2022-12-08T17:27:27.874Z,100526.97
2022-12-08T17:30:30.835Z,100532.28
2022-12-08T17:33:33.723Z,100527.06
2022-12-08T17:36:36.763Z,100537.59
2022-12-08T17:39:40.184Z,100539.41
2022-12-08T17:42:44.686Z,100535.88
2022-12-08T17:45:49.737Z,100543.81
2022-12-08T17:48:53.009Z,100542.06
2022-12-08T17:51:58.407Z,100551.00
2022-12-08T17:55:01.354Z,100554.59
2022-12-08T17:58:05.951Z,100545.72
2022-12-08T18:01:09.842Z,100545.81
2022-12-08T18:04:13.802Z,100541.38
2022-12-08T18:07:16.867Z,100541.44
2022-12-08T18:10:20.627Z,100549.44
2022-12-08T18:13:25.008Z,100544.16
2022-12-08T18:16:28.998Z,100550.34
2022-12-08T18:19:32.062Z,100548.63
2022-12-08T18:22:35.048Z,100552.16
2022-12-08T18:25:37.986Z,100554.81
2022-12-08T18:28:42.459Z,100551.28
2022-12-08T18:31:45.494Z,100555.75
2022-12-08T18:34:48.459Z,100556.69
2022-12-08T18:37:51.428Z,100551.44
2022-12-08T18:40:54.429Z,100553.16
2022-12-08T18:43:58.764Z,100550.50
2022-12-08T18:47:01.729Z,100560.31
2022-12-08T18:50:05.921Z,100565.63
2022-12-08T18:53:09.138Z,100560.31
2022-12-08T18:56:22.359Z,100561.13
2022-12-08T18:59:26.723Z,100566.41
2022-12-08T19:02:29.837Z,100565.44
2022-12-08T19:05:32.828Z,100576.97
2022-12-08T19:08:35.889Z,100577.75
2022-12-08T19:11:39.188Z,100583.06
2022-12-08T19:14:43.537Z,100578.63
2022-12-08T19:17:46.545Z,100595.44
2022-12-08T19:20:49.578Z,100590.13
2022-12-08T19:23:53.034Z,100595.44
2022-12-08T19:26:55.993Z,100599.91
2022-12-08T19:30:00.303Z,100599.13
2022-12-08T19:33:03.267Z,100595.50
2022-12-08T19:36:07.675Z,100598.16
2022-12-08T19:39:33.095Z,100595.59
2022-12-08T19:43:07.995Z,100604.44
2022-12-08T19:46:12.486Z,100601.00
2022-12-08T19:49:15.630Z,100601.78
2022-12-08T19:52:19.327Z,100598.25
2022-12-08T19:55:23.538Z,100609.66
2022-12-08T19:58:26.544Z,100612.31
2022-12-08T20:01:30.966Z,100618.53
2022-12-08T20:04:34.299Z,100609.66
2022-12-08T20:07:37.374Z,100614.13
2022-12-08T20:10:42.524Z,100627.41
2022-12-08T20:13:45.852Z,100629.25
2022-12-08T20:16:50.606Z,100636.28
2022-12-08T20:19:53.650Z,100633.63
2022-12-08T20:22:56.702Z,100631.97
2022-12-08T20:26:00.286Z,100634.69
2022-12-08T20:29:03.215Z,100636.56
2022-12-08T20:32:07.756Z,100637.44
2022-12-08T20:35:10.886Z,100643.78
2022-12-08T20:38:14.392Z,100649.09
2022-12-08T20:41:17.719Z,100645.66
2022-12-08T20:44:20.715Z,100645.66
2022-12-08T20:47:25.168Z,100648.22
2022-12-08T20:50:28.738Z,100649.97
2022-12-08T20:53:32.012Z,100645.47
2022-12-08T20:56:35.058Z,100648.13
2022-12-08T20:59:38.097Z,100647.22
2022-12-08T21:02:48.596Z,100647.22
2022-12-08T21:05:52.920Z,100648.88
2022-12-08T21:08:56.463Z,100653.25
2022-12-08T21:11:59.533Z,100654.09
2022-12-08T21:15:02.663Z,100652.31
2022-12-08T21:18:07.426Z,100655.84
2022-12-08T21:21:13.999Z,100654.91
2022-12-08T21:24:17.230Z,100663.66
2022-12-08T21:27:22.471Z,100660.13
2022-12-08T21:30:25.754Z,100661.00
2022-12-08T21:33:30.367Z,100670.78
2022-12-08T21:36:34.431Z,100670.78
2022-12-08T21:39:37.680Z,100676.09
2022-12-08T21:42:46.986Z,100676.09
2022-12-08T21:45:49.994Z,100674.38
2022-12-08T21:48:54.784Z,100667.31
2022-12-08T21:51:57.965Z,100676.25
2022-12-08T21:55:01.019Z,100674.53
2022-12-08T21:58:04.726Z,100684.28
2022-12-08T22:01:08.872Z,100690.50
2022-12-08T22:04:16.892Z,100685.25
2022-12-08T22:07:20.725Z,100691.44
2022-12-08T22:10:24.096Z,100687.91
2022-12-08T22:13:27.412Z,100686.16
2022-12-08T22:16:30.722Z,100685.34
2022-12-08T22:19:35.598Z,100685.34
2022-12-08T22:22:39.202Z,100693.38
2022-12-08T22:25:42.223Z,100691.66
2022-12-08T22:28:45.322Z,100690.78
2022-12-08T22:31:48.578Z,100695.25
2022-12-08T22:34:53.014Z,100693.53
2022-12-08T22:37:56.185Z,100688.22
2022-12-08T22:40:59.276Z,100689.91
2022-12-08T22:44:02.311Z,100682.88
2022-12-08T22:47:05.475Z,100682.03
2022-12-08T22:50:11.103Z,100689.13
2022-12-08T22:53:16.109Z,100688.22
2022-12-08T22:56:20.203Z,100690.91
2022-12-08T22:59:23.285Z,100683.81
2022-12-08T23:02:26.288Z,100689.13
2022-12-08T23:05:33.868Z,100686.47
2022-12-08T23:08:37.109Z,100691.78
2022-12-08T23:11:40.347Z,100696.31
2022-12-08T23:14:43.343Z,100694.63
2022-12-08T23:17:46.457Z,100691.97
2022-12-08T23:20:50.842Z,100685.69
2022-12-08T23:23:53.975Z,100688.22
2022-12-08T23:26:57.053Z,100686.34
2022-12-08T23:30:00.082Z,100688.81
2022-12-08T23:33:03.725Z,100691.28
2022-12-08T23:36:09.123Z,100685.91
2022-12-08T23:39:12.688Z,100684.94
2022-12-08T23:42:15.893Z,100686.75
2022-12-08T23:45:18.994Z,100698.25
2022-12-08T23:48:22.022Z,100695.69
2022-12-08T23:51:26.497Z,100695.69
2022-12-08T23:54:29.521Z,100698.41
2022-12-08T23:57:32.734Z,100697.56
